Georgetown, SC

8:27 PM EDT on August 21, 2014 (GMT -0400)
Earthworks Group, Inc. | Change Station
CLOSE
Current Station
Personal Weather Station
Location: Murrells Inlet, SC
Elevation: 21 ft
Nearby Weather Stations

Elev 21 ft 33.59 °N, 79.06 °W | Updated 59 seconds ago

Clear
Clear
80.7 °F
Feels Like 87 °F
N
0.0
Wind Variable Wind from SSE
Gusts 0.0 mph

Today
High -- | Low -- °F
--% Chance of Precip.
Yesterday
High -- | Low -- °F
Precip. -- in
6:43 AM 7:56 PM
Waning Crescent, 11% visible
Pressure 30.05 in
Visibility 10.0 miles
Clouds Clear
Heat Index 87 °F
Dew Point 76 °F
Humidity 86%
Rainfall 0.04 in
Snow Depth Not available.
UV 0 out of 12
Pollen 7.60 out of 12
Air Quality Not available.
Flu Activity Not available.
METAR KGGE 220015Z AUTO 00000KT 10SM CLR 27/23 A3005 RMK AO2

More Conditions Fewer Conditions

Pressure 30.05 in
Visibility 10.0 miles
Clouds Clear
Heat Index 87 °F
Dew Point 76 °F
Humidity 86%
Rainfall 0.04 in
Snow Depth Not available.
UV 0 out of 12
Pollen 7.60 out of 12
Air Quality Not available.
Flu Activity Not available.
METAR KGGE 220015Z AUTO 00000KT 10SM CLR 27/23 A3005 RMK AO2

More Conditions Fewer Conditions

10-Day Weather Forecast

Almanac

Astronomy

Aug. 21, 2014 Rise Set
Actual Time 6:43 AM EDT 7:56 PM EDT
Civil Twilight 6:17 AM EDT 8:22 PM EDT
Nautical Twilight 5:46 AM EDT 8:53 PM EDT
Astronomical Twilight 5:14 AM EDT 9:24 PM EDT
Moon 3:17 AM EDT (8/21) 5:19 PM EDT (8/21)
Length of Visible Light 14h 04m
Length of Day
13h 12m
Tomorrow will be 1m 54s shorter.
Waning Crescent, 11% of the Moon is Illuminated
Today
Waning Crescent
Aug 25
New
Sep 2
First Quarter
Sep 8
Full
Sep 15
Last Quarter

Today's Extremes

State Highs State Lows

Community

WunderPhotos

Upload Photos

1,746,075 photos uploaded!

Nearby

Snow Depth

Station Depth Elevation
No new snow has been reported.

Earthquake Activity

City Distance Mag. Time & Date
No recent earthquake activity has been reported nearby.
Minimum magnitude displayed is 2.5.

Coastal Water Temperatures

Place Temperature
Springmaid Pier, SC 84.9 °F

Nearby Weather Stations